Time;durP1;ratioP1;P1;durP2;ratioP2;P2;SDS_P1;SDS_P2;PMS_P1;PMS_P2;Temp;Humidity;BMP_temperature;BMP_pressure;BME280_temperature;BME280_humidity;BME280_pressure;Samples;Min_cycle;Max_cycle;Signal;HPM_P1;HPM_P2
2021/11/19 00:00:49;;;;;;;49.53;25.23;;;3.60;99.90;;;;;;4125752;28;20288;-64
2021/11/19 00:02:50;;;;;;;47.70;24.70;;;3.60;99.90;;;;;;4126039;28;20280;-63
2021/11/19 00:04:52;;;;;;;49.87;25.00;;;3.60;99.90;;;;;;4124542;28;20284;-62
2021/11/19 00:06:54;;;;;;;43.63;24.90;;;3.60;99.90;;;;;;4127166;28;21016;-73
2021/11/19 00:08:58;;;;;;;44.10;25.00;;;3.60;99.90;;;;;;4125272;28;20331;-63
2021/11/19 00:11:02;;;;;;;45.53;24.63;;;3.60;99.90;;;;;;4126709;28;20644;-63
2021/11/19 00:13:04;;;;;;;47.87;25.97;;;3.60;99.90;;;;;;4126013;28;20330;-69
2021/11/19 00:15:07;;;;;;;46.67;25.23;;;3.60;99.90;;;;;;4126116;28;20272;-63
2021/11/19 00:17:08;;;;;;;43.87;23.77;;;3.60;99.90;;;;;;4126076;28;20310;-66
2021/11/19 00:19:10;;;;;;;47.67;24.80;;;3.50;99.90;;;;;;4125912;28;20268;-62
2021/11/19 00:21:12;;;;;;;48.63;24.63;;;3.60;99.90;;;;;;4125801;28;20292;-65
2021/11/19 00:23:14;;;;;;;47.93;25.60;;;3.50;99.90;;;;;;4124966;28;20288;-64
2021/11/19 00:25:15;;;;;;;48.70;25.53;;;3.50;99.90;;;;;;4127023;28;20306;-70
2021/11/19 00:27:20;;;;;;;48.87;25.17;;;3.50;99.90;;;;;;4125126;28;20256;-69
2021/11/19 00:29:23;;;;;;;55.90;27.47;;;3.50;99.90;;;;;;4125774;28;20353;-63
2021/11/19 00:31:24;;;;;;;48.97;26.87;;;3.50;99.90;;;;;;4123958;28;20276;-63
2021/11/19 00:33:25;;;;;;;50.67;28.20;;;3.50;99.90;;;;;;4125846;28;21178;-63
2021/11/19 00:35:26;;;;;;;54.33;27.30;;;3.40;99.90;;;;;;4125952;28;20276;-66
2021/11/19 00:37:27;;;;;;;56.63;29.17;;;3.40;99.90;;;;;;4125449;28;20292;-62
2021/11/19 00:39:29;;;;;;;60.33;29.87;;;3.40;99.90;;;;;;4124660;28;20839;-64
2021/11/19 00:41:31;;;;;;;66.97;31.33;;;3.30;99.90;;;;;;4126393;28;20273;-69
2021/11/19 00:43:33;;;;;;;68.37;31.90;;;3.30;99.90;;;;;;4124560;28;20260;-63
2021/11/19 00:45:35;;;;;;;72.33;34.93;;;3.30;99.90;;;;;;4126174;28;20260;-63
2021/11/19 00:47:37;;;;;;;68.93;35.47;;;3.20;99.90;;;;;;4125470;28;20260;-62
2021/11/19 00:49:40;;;;;;;81.43;37.53;;;3.20;99.90;;;;;;4124037;28;20296;-62
2021/11/19 00:51:45;;;;;;;73.90;35.73;;;3.10;99.90;;;;;;4125566;28;21065;-65
2021/11/19 00:53:51;;;;;;;66.67;31.83;;;3.10;99.90;;;;;;4124790;28;20337;-63
2021/11/19 00:55:53;;;;;;;74.47;35.03;;;3.10;99.90;;;;;;4126477;28;20279;-62
2021/11/19 00:57:54;;;;;;;58.03;30.50;;;3.00;99.90;;;;;;4124645;28;20756;-70
2021/11/19 00:59:55;;;;;;;58.30;30.40;;;3.00;99.90;;;;;;4125111;28;20295;-62
2021/11/19 01:02:00;;;;;;;68.07;30.53;;;3.00;99.90;;;;;;4124372;28;20335;-65
2021/11/19 01:04:05;;;;;;;65.93;32.50;;;2.90;99.90;;;;;;4126241;28;20272;-66
2021/11/19 01:06:06;;;;;;;59.80;31.30;;;2.90;99.90;;;;;;4124747;28;20260;-62
2021/11/19 01:08:08;;;;;;;62.60;33.27;;;2.90;99.90;;;;;;4125448;28;20272;-62
2021/11/19 01:10:14;;;;;;;63.70;31.67;;;2.80;99.90;;;;;;4123780;28;20296;-64
2021/11/19 01:12:19;;;;;;;58.87;30.10;;;2.80;99.90;;;;;;4125465;28;20689;-62
2021/11/19 01:14:35;;;;;;;62.63;30.70;;;2.80;99.90;;;;;;4110804;28;20277;-65
2021/11/19 01:16:43;;;;;;;58.03;30.13;;;2.70;99.90;;;;;;4110788;28;20371;-66
2021/11/19 01:18:51;;;;;;;54.37;29.43;;;2.70;99.90;;;;;;4108672;28;20317;-64
2021/11/19 01:21:19;;;;;;;49.60;26.83;;;2.70;99.90;;;;;;4109491;28;20277;-58
2021/11/19 01:23:23;;;;;;;51.13;26.57;;;2.70;99.90;;;;;;4117611;28;20785;-66
2021/11/19 01:25:28;;;;;;;48.60;26.37;;;2.70;99.90;;;;;;4125621;28;20343;-62
2021/11/19 01:27:29;;;;;;;56.17;26.80;;;2.70;99.90;;;;;;4124177;28;20668;-65
2021/11/19 01:29:31;;;;;;;51.97;27.80;;;2.60;99.90;;;;;;4125323;28;20319;-64
2021/11/19 01:31:39;;;;;;;53.13;26.57;;;2.70;99.90;;;;;;4123878;28;20327;-63
2021/11/19 01:33:41;;;;;;;49.70;25.90;;;2.70;99.90;;;;;;4125716;28;20351;-71
2021/11/19 01:35:43;;;;;;;50.77;26.30;;;2.60;99.90;;;;;;4123837;28;20268;-68
2021/11/19 01:37:44;;;;;;;50.07;27.20;;;2.60;99.90;;;;;;4125080;28;20317;-67
2021/11/19 01:39:47;;;;;;;51.17;27.07;;;2.60;99.90;;;;;;4124040;28;20280;-69
2021/11/19 01:41:53;;;;;;;54.53;27.47;;;2.60;99.90;;;;;;4125204;28;20323;-65
2021/11/19 01:43:55;;;;;;;53.17;27.90;;;2.50;99.90;;;;;;4124402;28;20326;-64
2021/11/19 01:45:59;;;;;;;53.57;28.17;;;2.50;99.90;;;;;;4124450;28;20326;-72
2021/11/19 01:48:02;;;;;;;59.90;29.50;;;2.50;99.90;;;;;;4124001;28;20350;-63
2021/11/19 01:50:08;;;;;;;55.80;28.47;;;2.40;99.90;;;;;;4124220;28;20350;-68
2021/11/19 01:52:41;;;;;;;58.07;29.60;;;2.40;99.90;;;;;;4124759;28;20268;-65
2021/11/19 01:54:47;;;;;;;53.53;28.60;;;2.30;99.90;;;;;;4124987;28;20795;-62
2021/11/19 01:57:14;;;;;;;56.90;28.17;;;2.30;99.90;;;;;;4124761;28;20335;-61
2021/11/19 01:59:21;;;;;;;56.50;29.17;;;2.30;99.90;;;;;;4125081;28;20284;-63
2021/11/19 02:01:38;;;;;;;58.83;30.13;;;2.30;99.90;;;;;;4122883;28;20268;-63
2021/11/19 02:03:43;;;;;;;53.03;28.87;;;2.30;99.90;;;;;;4125124;28;20298;-65
2021/11/19 02:06:08;;;;;;;58.20;28.63;;;2.30;99.90;;;;;;4123972;28;20257;-62
2021/11/19 02:08:18;;;;;;;57.13;29.53;;;2.20;99.90;;;;;;4125241;28;20358;-68
2021/11/19 02:10:56;;;;;;;55.37;29.83;;;2.20;99.90;;;;;;4123441;28;20641;-64
2021/11/19 02:13:07;;;;;;;54.47;30.17;;;2.20;99.90;;;;;;4124630;28;20322;-68
2021/11/19 02:15:16;;;;;;;60.70;30.65;;;2.20;99.90;;;;;;4124099;28;20268;-62
2021/11/19 02:17:18;;;;;;;55.63;28.57;;;2.20;99.90;;;;;;4124420;28;20046;-65
2021/11/19 02:19:21;;;;;;;53.27;26.20;;;2.20;99.90;;;;;;4123982;28;20322;-62
2021/11/19 02:21:38;;;;;;;63.77;32.30;;;2.20;99.90;;;;;;4124762;28;20326;-61
2021/11/19 02:24:12;;;;;;;64.87;30.93;;;2.10;99.90;;;;;;4123456;28;20764;-62
2021/11/19 02:26:17;;;;;;;60.70;31.77;;;2.00;99.90;;;;;;4114031;28;20354;-64
2021/11/19 02:28:34;;;;;;;63.73;31.70;;;2.00;99.90;;;;;;4123888;28;20303;-63
2021/11/19 02:30:56;;;;;;;62.70;30.30;;;1.90;99.90;;;;;;4124771;28;20303;-68
2021/11/19 02:33:05;;;;;;;54.70;30.00;;;1.90;99.90;;;;;;4123581;28;20268;-64
2021/11/19 02:35:10;;;;;;;54.17;27.43;;;1.90;99.90;;;;;;4125024;28;20275;-65
2021/11/19 02:37:24;;;;;;;56.40;29.50;;;2.00;99.90;;;;;;4123731;28;20700;-63
2021/11/19 02:39:29;;;;;;;54.27;27.30;;;2.00;99.90;;;;;;4124226;28;20311;-64
2021/11/19 02:41:33;;;;;;;54.30;27.13;;;2.00;99.90;;;;;;4123601;28;20331;-67
2021/11/19 02:43:39;;;;;;;58.90;29.53;;;1.90;99.90;;;;;;4124789;28;20830;-67
2021/11/19 02:45:44;;;;;;;56.53;29.77;;;1.90;99.90;;;;;;4123917;28;20695;-62
2021/11/19 02:47:46;;;;;;;53.20;28.00;;;1.90;99.90;;;;;;4124621;28;20678;-65
2021/11/19 02:49:47;;;;;;;57.80;28.87;;;1.90;99.90;;;;;;4122875;28;20906;-63
2021/11/19 02:51:50;;;;;;;50.33;25.90;;;1.80;99.90;;;;;;4124645;28;20288;-61
2021/11/19 02:53:52;;;;;;;42.40;23.80;;;1.80;99.90;;;;;;4123249;28;20272;-62
2021/11/19 02:55:56;;;;;;;44.87;24.43;;;1.70;99.90;;;;;;4124842;28;20284;-61
2021/11/19 02:57:57;;;;;;;50.07;26.00;;;1.70;99.90;;;;;;4123851;28;20379;-62
2021/11/19 02:59:59;;;;;;;58.10;26.97;;;1.70;99.90;;;;;;4124618;28;20276;-66
2021/11/19 03:02:07;;;;;;;49.83;26.63;;;1.60;99.90;;;;;;4122569;28;20346;-62
2021/11/19 03:04:20;;;;;;;47.87;26.37;;;1.60;99.90;;;;;;4124531;28;20331;-63
2021/11/19 03:06:22;;;;;;;46.40;24.23;;;1.60;99.90;;;;;;4123131;28;20334;-72
2021/11/19 03:08:24;;;;;;;48.50;27.23;;;1.70;99.90;;;;;;4123703;28;20285;-69
2021/11/19 03:10:34;;;;;;;46.90;23.53;;;1.70;99.90;;;;;;4123220;28;20810;-62
2021/11/19 03:12:36;;;;;;;45.72;22.38;;;1.60;99.90;;;;;;4126430;28;20296;-66
2021/11/19 03:14:37;;;;;;;53.67;25.53;;;1.70;99.90;;;;;;4126542;28;20027;-62
2021/11/19 03:16:40;;;;;;;45.23;23.47;;;1.70;99.90;;;;;;4127135;28;20806;-70
2021/11/19 03:18:41;;;;;;;49.20;24.50;;;1.70;99.90;;;;;;4127134;28;20852;-67
2021/11/19 03:20:45;;;;;;;42.07;22.20;;;1.70;99.90;;;;;;4126496;28;20830;-70
2021/11/19 03:22:47;;;;;;;46.87;25.97;;;1.70;99.90;;;;;;4127176;28;20807;-65
2021/11/19 03:24:48;;;;;;;49.67;24.60;;;1.60;99.90;;;;;;4125886;28;20264;-66
2021/11/19 03:26:52;;;;;;;48.80;25.10;;;1.50;99.90;;;;;;4127760;28;20323;-62
2021/11/19 03:28:53;;;;;;;48.13;26.53;;;1.50;99.90;;;;;;4126307;28;20728;-71
2021/11/19 03:30:57;;;;;;;52.27;25.40;;;1.40;99.90;;;;;;4127207;28;20296;-62
2021/11/19 03:32:59;;;;;;;50.07;25.77;;;1.50;99.90;;;;;;4125576;28;20698;-71
2021/11/19 03:35:00;;;;;;;50.33;26.97;;;1.40;99.90;;;;;;4126689;28;20275;-66
2021/11/19 03:37:02;;;;;;;50.40;24.27;;;1.50;99.90;;;;;;4126184;28;20256;-65
2021/11/19 03:39:05;;;;;;;43.13;24.53;;;1.40;99.90;;;;;;4126975;28;20342;-67
2021/11/19 03:41:08;;;;;;;45.63;24.27;;;1.40;99.90;;;;;;4125536;28;20288;-62
2021/11/19 03:43:15;;;;;;;46.80;24.67;;;1.40;99.90;;;;;;4126896;28;20330;-62
2021/11/19 03:45:20;;;;;;;46.27;24.77;;;1.40;99.90;;;;;;4125922;28;20265;-68
2021/11/19 03:47:33;;;;;;;40.93;21.90;;;1.40;99.90;;;;;;4126591;28;20783;-62
2021/11/19 03:49:36;;;;;;;46.47;23.53;;;1.40;99.90;;;;;;4125959;28;20299;-63
2021/11/19 03:51:42;;;;;;;43.33;22.20;;;1.40;99.90;;;;;;4125791;28;20784;-69
2021/11/19 03:53:44;;;;;;;52.03;25.33;;;1.40;99.90;;;;;;4125601;28;20268;-66
2021/11/19 03:55:49;;;;;;;46.17;24.13;;;1.40;99.90;;;;;;4125238;28;20272;-63
2021/11/19 03:57:51;;;;;;;51.13;24.07;;;1.30;99.90;;;;;;4126058;28;20261;-62
2021/11/19 03:59:54;;;;;;;45.23;25.03;;;1.30;99.90;;;;;;4125540;28;20354;-63
2021/11/19 04:01:57;;;;;;;49.13;24.40;;;1.30;99.90;;;;;;4126477;28;20295;-62
2021/11/19 04:04:00;;;;;;;46.33;24.50;;;1.30;99.90;;;;;;4125585;28;20711;-61
2021/11/19 04:06:03;;;;;;;50.27;25.57;;;1.30;99.90;;;;;;4126213;28;20272;-61
2021/11/19 04:08:05;;;;;;;54.67;25.27;;;1.30;99.90;;;;;;4125147;28;20323;-61
2021/11/19 04:10:08;;;;;;;45.87;25.23;;;1.30;99.90;;;;;;4109343;28;21120;-61
2021/11/19 04:12:10;;;;;;;55.80;27.77;;;1.20;99.90;;;;;;4125298;28;20280;-67
2021/11/19 04:14:11;;;;;;;46.80;23.10;;;1.20;99.90;;;;;;4126061;28;20354;-67
2021/11/19 04:16:19;;;;;;;40.20;21.43;;;1.20;99.90;;;;;;4125507;28;20436;-61
2021/11/19 04:18:20;;;;;;;39.40;20.23;;;1.20;99.90;;;;;;4127024;28;20272;-64
2021/11/19 04:20:22;;;;;;;46.83;23.03;;;1.10;99.90;;;;;;4125558;28;20985;-65
2021/11/19 04:22:23;;;;;;;42.23;22.63;;;1.10;99.90;;;;;;4125959;28;20326;-61
2021/11/19 04:24:33;;;;;;;44.73;23.43;;;1.00;99.90;;;;;;4124955;28;20260;-62
2021/11/19 04:26:35;;;;;;;46.73;23.27;;;1.10;99.90;;;;;;4127149;28;20276;-62
2021/11/19 04:28:37;;;;;;;45.87;22.77;;;1.10;99.90;;;;;;4125495;28;20334;-63
2021/11/19 04:30:42;;;;;;;42.20;21.40;;;1.10;99.90;;;;;;4125564;28;20287;-63
2021/11/19 04:32:43;;;;;;;40.67;22.47;;;1.10;99.90;;;;;;4125681;28;20350;-65
2021/11/19 04:34:45;;;;;;;48.93;24.57;;;1.00;99.90;;;;;;4125619;28;20371;-67
2021/11/19 04:36:46;;;;;;;53.37;27.33;;;1.00;99.90;;;;;;4125917;28;21115;-65
2021/11/19 04:38:47;;;;;;;57.53;27.07;;;1.00;99.90;;;;;;4124844;28;20268;-62
2021/11/19 04:40:50;;;;;;;55.67;27.23;;;0.90;99.90;;;;;;4125477;28;20771;-66
2021/11/19 04:42:52;;;;;;;53.13;25.10;;;0.90;99.90;;;;;;4125251;28;20264;-61
2021/11/19 04:44:53;;;;;;;56.07;27.37;;;0.80;99.90;;;;;;4125850;28;20323;-62
2021/11/19 04:46:54;;;;;;;59.43;28.33;;;0.80;99.90;;;;;;4124030;28;20755;-67
2021/11/19 04:48:55;;;;;;;53.87;27.27;;;0.70;99.90;;;;;;4126119;28;20740;-63
2021/11/19 04:50:56;;;;;;;53.50;26.03;;;0.70;99.90;;;;;;4124437;28;20296;-64
2021/11/19 04:52:58;;;;;;;58.97;28.43;;;0.70;99.90;;;;;;4125135;28;20276;-69
2021/11/19 04:54:59;;;;;;;55.33;26.73;;;0.60;99.90;;;;;;4124916;28;20625;-63
2021/11/19 04:57:01;;;;;;;57.17;27.83;;;0.60;99.90;;;;;;4126014;28;20303;-63
2021/11/19 04:59:03;;;;;;;53.33;27.40;;;0.60;99.90;;;;;;4124531;28;20284;-63
2021/11/19 05:01:09;;;;;;;62.73;28.30;;;0.60;99.90;;;;;;4125214;28;20356;-68
2021/11/19 05:03:11;;;;;;;60.30;27.43;;;0.60;99.90;;;;;;4124336;28;20570;-64
2021/11/19 05:05:12;;;;;;;53.07;27.83;;;0.60;99.90;;;;;;4124176;28;20945;-61
2021/11/19 05:07:14;;;;;;;59.33;29.37;;;0.60;99.90;;;;;;4121393;28;20798;-66
2021/11/19 05:09:16;;;;;;;137.23;35.93;;;0.60;99.90;;;;;;4121262;28;20310;-62
2021/11/19 05:11:22;;;;;;;148.37;37.03;;;0.50;99.90;;;;;;4119694;28;20295;-65
2021/11/19 05:13:30;;;;;;;126.70;38.23;;;0.50;99.90;;;;;;4119532;28;20865;-65
2021/11/19 05:15:33;;;;;;;138.97;38.07;;;0.40;99.90;;;;;;4120591;28;20323;-62
2021/11/19 05:17:35;;;;;;;188.90;35.30;;;0.40;99.90;;;;;;4118820;28;20276;-63
2021/11/19 05:19:37;;;;;;;328.33;47.17;;;0.30;99.90;;;;;;4119727;28;20280;-63
2021/11/19 05:21:39;;;;;;;233.57;37.70;;;0.30;99.90;;;;;;4122654;28;20685;-72
2021/11/19 05:23:41;;;;;;;283.97;39.13;;;0.30;99.90;;;;;;4121429;28;20292;-69
2021/11/19 05:25:44;;;;;;;193.37;38.93;;;0.20;99.90;;;;;;4118945;28;20370;-65
2021/11/19 05:27:45;;;;;;;172.50;35.10;;;0.20;99.90;;;;;;4120956;28;20867;-62
2021/11/19 05:29:47;;;;;;;255.93;44.03;;;0.20;99.90;;;;;;4118157;28;20300;-67
2021/11/19 05:31:49;;;;;;;268.97;45.50;;;0.20;99.90;;;;;;4120537;28;20300;-67
2021/11/19 05:33:51;;;;;;;211.90;41.23;;;0.20;99.90;;;;;;4118179;28;20296;-62
2021/11/19 05:35:53;;;;;;;256.57;41.17;;;0.20;99.90;;;;;;4117288;28;20342;-66
2021/11/19 05:37:54;;;;;;;409.53;54.30;;;0.20;99.90;;;;;;4118236;28;20268;-72
2021/11/19 05:39:55;;;;;;;470.20;57.30;;;0.20;99.90;;;;;;4121962;28;20378;-62
2021/11/19 05:41:57;;;;;;;308.83;47.67;;;0.20;99.90;;;;;;4122837;28;20276;-62
2021/11/19 05:43:58;;;;;;;524.60;66.87;;;0.20;99.90;;;;;;4124205;28;20898;-61
2021/11/19 05:46:00;;;;;;;362.07;51.20;;;0.10;99.90;;;;;;4123554;28;20511;-61
2021/11/19 05:48:03;;;;;;;263.53;43.47;;;0.10;99.90;;;;;;4123671;28;20264;-61
2021/11/19 05:50:09;;;;;;;277.40;48.40;;;0.10;99.90;;;;;;4123363;28;20283;-60
2021/11/19 05:52:11;;;;;;;239.93;48.30;;;0.10;99.90;;;;;;4110227;28;20308;-62
2021/11/19 05:54:14;;;;;;;193.03;43.93;;;0.10;99.90;;;;;;4124042;28;20744;-65
2021/11/19 05:56:17;;;;;;;215.37;40.40;;;0.10;99.90;;;;;;4122288;28;20716;-64
2021/11/19 05:58:19;;;;;;;217.90;40.10;;;0.10;99.90;;;;;;4124232;28;20330;-64
2021/11/19 06:00:33;;;;;;;176.43;41.43;;;0.00;99.90;;;;;;4123101;28;20264;-63
2021/11/19 06:02:34;;;;;;;176.13;43.07;;;0.10;99.90;;;;;;4125199;28;21102;-63
2021/11/19 06:04:37;;;;;;;203.47;45.57;;;0.10;99.90;;;;;;4123435;28;20736;-67
2021/11/19 06:06:38;;;;;;;174.20;39.90;;;0.10;99.90;;;;;;4124420;28;20272;-63
2021/11/19 06:08:42;;;;;;;223.60;44.97;;;0.20;99.90;;;;;;4123027;28;20272;-62
2021/11/19 06:10:53;;;;;;;172.17;44.47;;;0.20;99.90;;;;;;4124442;28;20280;-63
2021/11/19 06:13:09;;;;;;;216.23;51.10;;;0.20;99.90;;;;;;4123991;28;20749;-64
2021/11/19 06:15:20;;;;;;;136.77;43.80;;;0.20;99.90;;;;;;4124641;28;20772;-64
2021/11/19 06:17:50;;;;;;;158.97;45.07;;;0.30;99.90;;;;;;4123751;28;20268;-63
2021/11/19 06:19:55;;;;;;;282.17;46.10;;;0.40;99.90;;;;;;4121579;28;20339;-64
2021/11/19 06:22:04;;;;;;;243.87;44.77;;;0.40;99.90;;;;;;4123088;28;20075;-64
2021/11/19 06:24:09;;;;;;;140.23;38.97;;;0.40;99.90;;;;;;4124799;28;20288;-61
2021/11/19 06:26:13;;;;;;;286.00;47.53;;;0.40;99.90;;;;;;4123603;28;20280;-63
2021/11/19 06:28:30;;;;;;;183.13;48.30;;;0.40;99.90;;;;;;4124702;28;20276;-65
2021/11/19 06:30:33;;;;;;;170.83;44.83;;;0.40;99.90;;;;;;4123394;28;20685;-62
2021/11/19 06:32:35;;;;;;;171.00;45.53;;;0.40;99.90;;;;;;4124599;28;20664;-66
2021/11/19 06:34:37;;;;;;;129.23;42.03;;;0.40;99.90;;;;;;4123066;28;20318;-62
2021/11/19 06:36:41;;;;;;;157.90;42.23;;;0.50;99.90;;;;;;4124483;28;20326;-63
2021/11/19 06:38:45;;;;;;;162.43;43.97;;;0.50;99.90;;;;;;4122852;28;20264;-68
2021/11/19 06:40:47;;;;;;;133.20;40.83;;;0.50;99.90;;;;;;4124407;28;20326;-62
2021/11/19 06:42:48;;;;;;;120.50;37.70;;;0.60;99.90;;;;;;4123360;28;20685;-63
2021/11/19 06:44:49;;;;;;;131.37;39.93;;;0.60;99.90;;;;;;4124513;28;20323;-63
2021/11/19 06:46:51;;;;;;;121.97;39.83;;;0.70;99.90;;;;;;4124065;28;20729;-66
2021/11/19 06:48:52;;;;;;;112.83;40.60;;;0.80;99.90;;;;;;4126979;28;20319;-65
2021/11/19 06:50:54;;;;;;;107.03;40.70;;;0.80;99.90;;;;;;4126505;28;20562;-66
2021/11/19 06:52:55;;;;;;;102.03;42.30;;;0.90;99.90;;;;;;4126564;28;20814;-64
2021/11/19 06:54:56;;;;;;;287.40;56.10;;;1.00;99.90;;;;;;4126731;28;20343;-62
2021/11/19 06:56:58;;;;;;;196.30;50.33;;;1.00;99.90;;;;;;4127315;28;20326;-62
2021/11/19 06:59:00;;;;;;;155.53;45.77;;;1.00;99.90;;;;;;4127241;28;20280;-67
2021/11/19 07:01:02;;;;;;;217.13;49.57;;;1.00;99.90;;;;;;4125422;28;20327;-67
2021/11/19 07:03:03;;;;;;;137.57;46.00;;;1.00;99.90;;;;;;4127340;28;20646;-63
2021/11/19 07:05:05;;;;;;;131.90;45.33;;;1.00;99.90;;;;;;4126066;28;20331;-64
2021/11/19 07:07:08;;;;;;;158.70;45.37;;;1.10;99.90;;;;;;4126988;28;20333;-64
2021/11/19 07:09:12;;;;;;;133.17;43.03;;;1.00;99.90;;;;;;4125784;28;20284;-62
2021/11/19 07:11:18;;;;;;;152.57;46.03;;;1.10;99.90;;;;;;4125984;28;20288;-63
2021/11/19 07:13:20;;;;;;;205.00;48.47;;;1.10;99.90;;;;;;4125193;28;20582;-66
2021/11/19 07:15:23;;;;;;;152.70;47.20;;;1.20;99.90;;;;;;4126995;28;20705;-63
2021/11/19 07:17:24;;;;;;;164.97;41.43;;;1.10;99.90;;;;;;4125585;28;20330;-63
2021/11/19 07:19:28;;;;;;;119.97;37.83;;;1.10;99.90;;;;;;4125595;28;20292;-65
2021/11/19 07:21:29;;;;;;;121.13;38.77;;;1.10;99.90;;;;;;4124822;28;20668;-63
2021/11/19 07:23:30;;;;;;;101.10;36.30;;;1.00;99.90;;;;;;4126499;28;20283;-65
2021/11/19 07:25:32;;;;;;;114.60;37.30;;;1.00;99.90;;;;;;4126032;28;20326;-62
2021/11/19 07:27:34;;;;;;;109.10;38.17;;;1.00;99.90;;;;;;4126893;28;20275;-62
2021/11/19 07:29:35;;;;;;;100.07;39.00;;;1.00;99.90;;;;;;4126699;28;20302;-63
2021/11/19 07:31:37;;;;;;;103.00;36.03;;;1.00;99.90;;;;;;4125487;28;20327;-63
2021/11/19 07:33:38;;;;;;;78.80;36.07;;;1.10;99.90;;;;;;4126970;28;20334;-65
2021/11/19 07:35:42;;;;;;;75.13;34.10;;;1.10;99.90;;;;;;4125509;28;20306;-65
2021/11/19 07:37:43;;;;;;;76.77;33.03;;;1.10;99.90;;;;;;4126752;28;20280;-66
2021/11/19 07:39:44;;;;;;;80.30;34.40;;;1.10;99.90;;;;;;4125267;28;20277;-64
2021/11/19 07:41:45;;;;;;;88.80;35.37;;;1.10;99.90;;;;;;4126840;28;20319;-64
2021/11/19 07:43:46;;;;;;;80.97;32.83;;;1.10;99.90;;;;;;4125379;28;20326;-64
2021/11/19 07:45:48;;;;;;;94.03;35.60;;;1.20;99.90;;;;;;4126026;28;20272;-65
2021/11/19 07:47:50;;;;;;;88.67;35.60;;;1.30;99.90;;;;;;4125813;28;20276;-65
2021/11/19 07:49:51;;;;;;;85.13;36.00;;;1.30;99.90;;;;;;4126752;28;20260;-62
2021/11/19 07:51:54;;;;;;;88.67;38.43;;;1.40;99.90;;;;;;4125015;28;20308;-65
2021/11/19 07:53:56;;;;;;;98.37;37.50;;;1.40;99.90;;;;;;4126608;28;20751;-66
2021/11/19 07:55:58;;;;;;;201.53;38.33;;;1.40;99.90;;;;;;4124447;28;20669;-64
2021/11/19 07:58:00;;;;;;;158.97;36.27;;;1.30;99.90;;;;;;4125189;28;20280;-70
2021/11/19 08:00:09;;;;;;;95.60;37.60;;;1.40;99.90;;;;;;4125847;28;20264;-67
2021/11/19 08:02:10;;;;;;;137.60;38.93;;;1.50;99.90;;;;;;4125202;28;20288;-68
2021/11/19 08:04:12;;;;;;;97.27;38.33;;;1.60;99.90;;;;;;4125933;28;20261;-65
2021/11/19 08:06:14;;;;;;;93.13;40.43;;;1.70;99.90;;;;;;4125266;28;20264;-64
2021/11/19 08:08:16;;;;;;;104.30;40.77;;;1.90;99.90;;;;;;4125969;28;20275;-63
2021/11/19 08:10:17;;;;;;;99.23;40.83;;;2.20;99.90;;;;;;4125520;28;20272;-65
2021/11/19 08:12:19;;;;;;;104.83;42.80;;;2.50;99.90;;;;;;4126328;28;20296;-65
2021/11/19 08:14:20;;;;;;;111.27;43.00;;;2.70;99.90;;;;;;4124880;28;20315;-67
2021/11/19 08:16:23;;;;;;;102.07;40.93;;;2.90;99.90;;;;;;4126106;28;20695;-62
2021/11/19 08:18:31;;;;;;;98.80;39.83;;;2.90;99.90;;;;;;4124853;28;20268;-65
2021/11/19 08:20:37;;;;;;;93.47;35.70;;;2.80;99.90;;;;;;4126294;28;20263;-63
2021/11/19 08:22:39;;;;;;;86.73;36.00;;;2.70;99.90;;;;;;4124596;28;20345;-64
2021/11/19 08:24:41;;;;;;;71.30;31.70;;;2.60;99.90;;;;;;4126247;28;20319;-63
2021/11/19 08:26:47;;;;;;;72.37;32.23;;;2.60;99.90;;;;;;4124402;28;20893;-63
2021/11/19 08:28:50;;;;;;;66.27;30.93;;;2.60;99.90;;;;;;4126326;28;20271;-65
2021/11/19 08:30:51;;;;;;;69.57;30.53;;;2.50;99.90;;;;;;4124455;28;20268;-64
2021/11/19 08:32:52;;;;;;;59.00;30.07;;;2.50;99.90;;;;;;4125285;28;20304;-64
2021/11/19 08:34:55;;;;;;;57.00;29.37;;;2.50;99.90;;;;;;4124696;28;20276;-66
2021/11/19 08:36:57;;;;;;;63.40;29.30;;;2.60;99.90;;;;;;4125655;28;20276;-64
2021/11/19 08:39:00;;;;;;;62.13;28.57;;;2.60;99.90;;;;;;4124935;28;20720;-63
2021/11/19 08:41:03;;;;;;;61.77;27.60;;;2.60;99.90;;;;;;4124395;28;20922;-62
2021/11/19 08:43:04;;;;;;;65.83;27.50;;;2.60;99.90;;;;;;4125339;28;21061;-63
2021/11/19 08:45:07;;;;;;;63.53;27.57;;;2.70;99.90;;;;;;4124211;28;20745;-66
2021/11/19 08:47:10;;;;;;;60.27;26.73;;;2.70;99.90;;;;;;4125514;28;20389;-65
2021/11/19 08:49:14;;;;;;;59.43;25.87;;;2.70;99.90;;;;;;4124567;28;20326;-63
2021/11/19 08:51:19;;;;;;;53.20;25.83;;;2.70;99.90;;;;;;4125352;28;20331;-63
2021/11/19 08:53:21;;;;;;;63.57;28.63;;;2.70;99.90;;;;;;4123845;28;20299;-63
2021/11/19 08:55:22;;;;;;;60.33;27.23;;;2.80;99.90;;;;;;4124902;28;20323;-65
2021/11/19 08:57:25;;;;;;;56.60;27.83;;;2.90;99.90;;;;;;4123945;28;20736;-62
2021/11/19 08:59:29;;;;;;;60.33;27.50;;;3.10;99.90;;;;;;4125057;28;20268;-63
2021/11/19 09:01:30;;;;;;;55.17;25.90;;;3.30;99.90;;;;;;4123403;28;20733;-62
2021/11/19 09:03:32;;;;;;;55.33;27.23;;;3.40;99.90;;;;;;4125005;28;20326;-65
2021/11/19 09:05:35;;;;;;;51.13;24.57;;;3.70;99.90;;;;;;4122616;28;20708;-63
2021/11/19 09:07:38;;;;;;;61.23;28.97;;;3.70;99.90;;;;;;4124430;28;20807;-62
2021/11/19 09:09:40;;;;;;;58.07;28.40;;;3.60;99.90;;;;;;4123084;28;20264;-63
2021/11/19 09:11:41;;;;;;;75.53;31.97;;;3.60;99.90;;;;;;4124437;28;20625;-62
2021/11/19 09:13:43;;;;;;;84.50;35.67;;;3.60;99.90;;;;;;4124063;28;20295;-65
2021/11/19 09:15:44;;;;;;;66.73;31.70;;;3.60;99.90;;;;;;4124411;28;20268;-64
2021/11/19 09:18:07;;;;;;;58.73;29.47;;;3.60;99.90;;;;;;4124695;28;20272;-64
2021/11/19 09:20:40;;;;;;;67.87;31.10;;;3.60;99.90;;;;;;4124234;28;20331;-65
2021/11/19 09:22:49;;;;;;;71.27;32.93;;;3.60;99.90;;;;;;4095325;28;20334;-64
2021/11/19 09:24:50;;;;;;;76.97;37.47;;;3.60;99.90;;;;;;4125154;28;20660;-68
2021/11/19 09:26:55;;;;;;;69.50;33.27;;;3.60;99.90;;;;;;4124098;28;20265;-63
2021/11/19 09:28:59;;;;;;;69.30;33.50;;;3.70;99.90;;;;;;4122950;28;20319;-63
2021/11/19 09:31:02;;;;;;;59.50;28.33;;;3.70;99.90;;;;;;4124391;28;20260;-62
2021/11/19 09:33:07;;;;;;;62.40;29.23;;;3.80;99.90;;;;;;4124160;28;20354;-64
2021/11/19 09:35:09;;;;;;;51.73;27.37;;;3.90;99.90;;;;;;4124506;28;20720;-62
2021/11/19 09:37:13;;;;;;;47.17;24.03;;;3.90;99.90;;;;;;4123509;28;20264;-66
2021/11/19 09:39:16;;;;;;;45.70;24.03;;;4.00;99.90;;;;;;4124938;28;20672;-64
2021/11/19 09:41:46;;;;;;;46.03;23.30;;;4.10;99.90;;;;;;4123562;28;20268;-64
2021/11/19 09:44:29;;;;;;;49.42;24.10;;;4.10;99.90;;;;;;4124638;28;20260;-63
2021/11/19 09:47:07;;;;;;;49.47;25.47;;;4.20;99.90;;;;;;4113270;28;20038;-64
2021/11/19 09:49:23;;;;;;;48.13;22.97;;;4.20;99.90;;;;;;4123525;28;20276;-65
2021/11/19 09:51:52;;;;;;;54.50;28.20;;;4.30;99.90;;;;;;4124151;28;20295;-65
2021/11/19 09:54:17;;;;;;;57.93;28.23;;;4.30;99.90;;;;;;4123385;28;20268;-64
2021/11/19 09:57:06;;;;;;;61.40;26.70;;;4.40;99.90;;;;;;4122797;28;21154;-64
2021/11/19 09:59:35;;;;;;;55.17;26.80;;;4.50;99.90;;;;;;4087308;28;20283;-65
2021/11/19 10:02:00;;;;;;;50.47;26.27;;;4.60;99.90;;;;;;4123729;28;20276;-67
2021/11/19 10:04:01;;;;;;;58.40;27.63;;;4.70;99.90;;;;;;4124320;28;20326;-64
2021/11/19 10:06:12;;;;;;;39.70;21.73;;;4.70;99.90;;;;;;4123327;28;20264;-65
2021/11/19 10:08:42;;;;;;;40.20;19.45;;;4.80;99.90;;;;;;4124281;28;20268;-66
2021/11/19 10:10:51;;;;;;;44.60;21.97;;;4.80;99.90;;;;;;4122882;28;20085;-63
2021/11/19 10:12:58;;;;;;;35.67;18.40;;;4.80;99.90;;;;;;4124659;28;20625;-62
2021/11/19 10:15:07;;;;;;;35.20;17.20;;;4.80;99.90;;;;;;4123201;28;20790;-64
2021/11/19 10:17:31;;;;;;;32.87;16.63;;;4.80;99.90;;;;;;4124333;28;20345;-63
2021/11/19 10:19:44;;;;;;;38.27;18.47;;;4.90;99.90;;;;;;4082843;28;20396;-67
2021/11/19 10:22:04;;;;;;;29.07;16.40;;;5.00;99.90;;;;;;4123601;28;20327;-65
2021/11/19 10:24:17;;;;;;;33.30;17.63;;;5.00;99.90;;;;;;4123051;28;20280;-64
2021/11/19 10:26:33;;;;;;;31.93;16.10;;;5.10;99.90;;;;;;4124368;28;20833;-62
2021/11/19 10:28:42;;;;;;;26.00;14.67;;;5.20;99.90;;;;;;4123858;28;20335;-65
2021/11/19 10:30:50;;;;;;;38.20;16.00;;;5.20;99.90;;;;;;4123842;28;20283;-65
2021/11/19 10:32:52;;;;;;;28.97;17.30;;;5.30;99.90;;;;;;4123133;28;20342;-63
2021/11/19 10:35:12;;;;;;;32.20;17.03;;;5.30;99.90;;;;;;4124170;28;20276;-63
2021/11/19 10:37:54;;;;;;;31.93;17.53;;;5.40;99.90;;;;;;4122877;28;20323;-65
2021/11/19 10:40:33;;;;;;;34.87;17.70;;;5.50;99.90;;;;;;4124212;28;20276;-63
2021/11/19 10:42:52;;;;;;;32.23;17.30;;;5.60;99.90;;;;;;4123881;28;20327;-64